createdAt,value
2022-09-09T00:00:08.336Z,15.6
2022-09-09T00:01:08.933Z,15.6
2022-09-09T00:02:09.584Z,15.6
2022-09-09T00:03:10.254Z,15.6
2022-09-09T00:04:10.834Z,15.6
2022-09-09T00:05:11.430Z,15.6
2022-09-09T00:06:12.023Z,15.6
2022-09-09T00:07:12.620Z,15.5
2022-09-09T00:08:13.210Z,15.7
2022-09-09T00:09:13.804Z,15.7
2022-09-09T00:10:14.400Z,15.6
2022-09-09T00:11:14.992Z,15.7
2022-09-09T00:12:15.585Z,15.7
2022-09-09T00:13:16.182Z,15.6
2022-09-09T00:14:16.776Z,15.7
2022-09-09T00:15:17.388Z,15.7
2022-09-09T00:16:18.043Z,15.7
2022-09-09T00:17:18.591Z,15.7
2022-09-09T00:18:19.186Z,15.6
2022-09-09T00:19:19.780Z,15.7
2022-09-09T00:20:20.374Z,15.7
2022-09-09T00:21:20.970Z,15.8
2022-09-09T00:22:21.567Z,15.8
2022-09-09T00:23:22.159Z,15.8
2022-09-09T00:24:22.755Z,15.7
2022-09-09T00:25:23.350Z,15.6
2022-09-09T00:26:23.943Z,15.6
2022-09-09T00:27:24.544Z,15.7
2022-09-09T00:28:25.161Z,15.6
2022-09-09T00:29:25.752Z,15.6
2022-09-09T00:30:26.349Z,15.6
2022-09-09T00:31:27.018Z,15.7
2022-09-09T00:32:27.559Z,15.7
2022-09-09T00:33:28.155Z,15.7
2022-09-09T00:34:28.748Z,15.6
2022-09-09T00:35:29.343Z,15.6
2022-09-09T00:36:29.940Z,15.6
2022-09-09T00:37:30.533Z,15.6
2022-09-09T00:38:31.160Z,15.6
2022-09-09T00:39:31.751Z,15.6
2022-09-09T00:40:32.321Z,15.6
2022-09-09T00:41:32.916Z,15.6
2022-09-09T00:42:33.515Z,15.7
2022-09-09T00:43:34.106Z,15.6
2022-09-09T00:44:34.700Z,15.7
2022-09-09T00:45:35.295Z,15.7
2022-09-09T00:46:35.980Z,15.5
2022-09-09T00:47:36.579Z,15.6
2022-09-09T00:48:37.172Z,15.6
2022-09-09T00:49:37.767Z,15.6
2022-09-09T00:50:38.362Z,15.6
2022-09-09T00:51:38.957Z,15.6
2022-09-09T00:52:39.553Z,15.5
2022-09-09T00:53:40.145Z,15.7
2022-09-09T00:54:40.738Z,15.6
2022-09-09T00:55:41.337Z,15.6
2022-09-09T00:56:41.929Z,15.7
2022-09-09T00:57:42.558Z,15.7
2022-09-09T00:58:43.137Z,15.7
2022-09-09T00:59:43.733Z,15.6
2022-09-09T01:00:44.326Z,15.6
2022-09-09T01:01:44.968Z,15.6
2022-09-09T01:02:45.634Z,15.6
2022-09-09T01:03:46.232Z,15.7
2022-09-09T01:04:46.826Z,15.7
2022-09-09T01:05:47.427Z,15.7
2022-09-09T01:06:48.019Z,15.6
2022-09-09T01:07:48.616Z,15.7
2022-09-09T01:08:49.210Z,15.8
2022-09-09T01:09:49.804Z,15.8
2022-09-09T01:10:50.426Z,15.8
2022-09-09T01:11:51.022Z,15.9
2022-09-09T01:12:51.614Z,16.0
2022-09-09T01:13:52.208Z,16.0
2022-09-09T01:14:52.801Z,16.1
2022-09-09T01:15:53.397Z,16.1
2022-09-09T01:16:54.055Z,16.1
2022-09-09T01:17:54.604Z,16.1
2022-09-09T01:18:55.199Z,16.1
2022-09-09T01:19:55.797Z,16.1
2022-09-09T01:20:56.389Z,16.0
2022-09-09T01:21:56.985Z,15.9
2022-09-09T01:22:57.579Z,15.9
2022-09-09T01:23:58.175Z,15.8
2022-09-09T01:24:58.769Z,15.8
2022-09-09T01:25:59.364Z,15.8
2022-09-09T01:26:59.980Z,15.8
2022-09-09T01:28:00.594Z,15.8
2022-09-09T01:29:01.187Z,15.8
2022-09-09T01:30:01.783Z,15.8
2022-09-09T01:31:02.450Z,15.8
2022-09-09T01:32:03.009Z,15.8
2022-09-09T01:33:03.610Z,15.7
2022-09-09T01:34:04.199Z,15.7
2022-09-09T01:35:04.813Z,15.8
2022-09-09T01:36:05.406Z,15.7
2022-09-09T01:37:06.003Z,15.7
2022-09-09T01:38:06.597Z,15.7
2022-09-09T01:39:07.193Z,15.7
2022-09-09T01:40:07.822Z,15.8
2022-09-09T01:41:08.402Z,15.7
2022-09-09T01:42:08.998Z,15.7
2022-09-09T01:43:09.593Z,15.7
2022-09-09T01:44:10.189Z,15.8
2022-09-09T01:45:10.785Z,15.7
2022-09-09T01:46:11.426Z,15.7
2022-09-09T01:47:11.974Z,15.7
2022-09-09T01:48:12.572Z,15.8
2022-09-09T01:49:13.184Z,15.8
2022-09-09T01:50:13.786Z,15.8
2022-09-09T01:51:14.375Z,15.9
2022-09-09T01:52:14.972Z,15.8
2022-09-09T01:53:15.567Z,15.8
2022-09-09T01:54:16.161Z,15.8
2022-09-09T01:55:16.757Z,15.7
2022-09-09T01:56:17.353Z,15.7
2022-09-09T01:57:17.950Z,15.7
2022-09-09T01:58:18.544Z,15.6
2022-09-09T01:59:19.137Z,15.7
2022-09-09T02:00:19.733Z,15.7
2022-09-09T02:01:20.377Z,15.7
2022-09-09T02:02:20.995Z,15.6
2022-09-09T02:03:21.533Z,15.7
2022-09-09T02:04:22.131Z,15.6
2022-09-09T02:05:22.725Z,15.6
2022-09-09T02:06:23.339Z,15.6
2022-09-09T02:07:23.932Z,15.7
2022-09-09T02:08:24.530Z,15.6
2022-09-09T02:09:25.124Z,15.6
2022-09-09T02:10:25.717Z,15.6
2022-09-09T02:11:26.313Z,15.5
2022-09-09T02:12:26.928Z,15.6
2022-09-09T02:13:27.521Z,15.6
2022-09-09T02:14:28.115Z,15.6
2022-09-09T02:15:28.710Z,15.7
2022-09-09T02:16:29.373Z,15.7
2022-09-09T02:17:29.924Z,15.6
2022-09-09T02:18:30.519Z,15.6
2022-09-09T02:19:31.114Z,15.6
2022-09-09T02:20:34.976Z,15.7
2022-09-09T02:21:33.296Z,15.7
2022-09-09T02:22:33.889Z,15.7
2022-09-09T02:23:34.485Z,15.8
2022-09-09T02:24:35.077Z,15.8
2022-09-09T02:25:35.673Z,15.8
2022-09-09T02:26:36.268Z,15.7
2022-09-09T02:27:36.863Z,15.8
2022-09-09T02:28:37.541Z,15.7
2022-09-09T02:29:38.216Z,15.7
2022-09-09T02:30:38.886Z,15.7
2022-09-09T02:31:39.442Z,15.7
2022-09-09T02:32:40.037Z,15.7
2022-09-09T02:33:40.653Z,15.7
2022-09-09T02:34:41.246Z,15.7
2022-09-09T02:35:41.840Z,15.7
2022-09-09T02:36:42.436Z,15.7
2022-09-09T02:37:43.033Z,15.8
2022-09-09T02:38:43.624Z,15.6
2022-09-09T02:39:44.280Z,15.7
2022-09-09T02:40:44.843Z,15.7
2022-09-09T02:41:45.439Z,15.8
2022-09-09T02:42:46.035Z,15.8
2022-09-09T02:43:46.650Z,15.7
2022-09-09T02:44:47.243Z,15.7
2022-09-09T02:45:47.900Z,15.8
2022-09-09T02:46:48.444Z,15.7
2022-09-09T02:47:49.040Z,15.8
2022-09-09T02:48:49.634Z,15.8
2022-09-09T02:49:50.229Z,15.8
2022-09-09T02:50:50.823Z,15.8
2022-09-09T02:51:51.420Z,15.8
2022-09-09T02:52:52.035Z,15.9
2022-09-09T02:53:52.631Z,15.8
2022-09-09T02:54:53.228Z,15.8
2022-09-09T02:55:53.840Z,15.9
2022-09-09T02:56:54.435Z,15.8
2022-09-09T02:57:55.035Z,15.9
2022-09-09T02:58:55.625Z,15.9
2022-09-09T02:59:56.222Z,15.9
2022-09-09T03:00:56.853Z,15.9
2022-09-09T03:01:57.460Z,15.9
2022-09-09T03:02:58.030Z,15.9
2022-09-09T03:03:58.629Z,15.8
2022-09-09T03:04:59.222Z,15.9
2022-09-09T03:05:59.818Z,15.9
2022-09-09T03:07:00.411Z,15.8
2022-09-09T03:08:01.009Z,15.8
2022-09-09T03:09:01.601Z,15.7
2022-09-09T03:10:02.197Z,15.8
2022-09-09T03:11:02.812Z,15.8
2022-09-09T03:12:03.412Z,15.7
2022-09-09T03:13:04.005Z,15.6
2022-09-09T03:14:04.600Z,15.6
2022-09-09T03:15:05.196Z,15.7
2022-09-09T03:16:05.822Z,15.6
2022-09-09T03:17:06.387Z,15.6
2022-09-09T03:18:06.984Z,15.7
2022-09-09T03:19:07.574Z,15.7
2022-09-09T03:20:08.174Z,15.7
2022-09-09T03:21:08.789Z,15.7
2022-09-09T03:22:09.384Z,15.6
2022-09-09T03:23:15.020Z,15.7
2022-09-09T03:24:11.567Z,15.6
2022-09-09T03:25:12.160Z,15.6
2022-09-09T03:26:12.757Z,15.6
2022-09-09T03:27:13.353Z,15.6
2022-09-09T03:28:13.949Z,15.7
2022-09-09T03:29:14.545Z,15.6
2022-09-09T03:30:15.138Z,15.7
2022-09-09T03:31:15.774Z,15.6
2022-09-09T03:32:16.328Z,15.6
2022-09-09T03:33:16.923Z,15.6
2022-09-09T03:34:17.518Z,15.6
2022-09-09T03:35:18.111Z,15.6
2022-09-09T03:36:18.710Z,15.5
2022-09-09T03:37:19.302Z,15.4
2022-09-09T03:38:19.897Z,15.5
2022-09-09T03:39:20.490Z,15.4
2022-09-09T03:40:21.092Z,15.4
2022-09-09T03:41:21.699Z,15.4
2022-09-09T03:42:22.314Z,15.3
2022-09-09T03:43:22.906Z,15.3
2022-09-09T03:44:23.504Z,15.2
2022-09-09T03:45:24.151Z,15.2
2022-09-09T03:46:24.714Z,15.2
2022-09-09T03:47:25.306Z,15.2
2022-09-09T03:48:25.904Z,15.2
2022-09-09T03:49:26.496Z,15.2
2022-09-09T03:50:27.091Z,15.2
2022-09-09T03:51:27.692Z,15.2
2022-09-09T03:52:28.287Z,15.2
2022-09-09T03:53:28.882Z,15.2
2022-09-09T03:54:29.476Z,15.1
2022-09-09T03:55:30.072Z,15.1
2022-09-09T03:56:30.667Z,15.1
2022-09-09T03:57:31.262Z,15.1
2022-09-09T03:58:31.860Z,15.0
2022-09-09T03:59:32.453Z,15.1
2022-09-09T04:00:33.047Z,15.1
2022-09-09T04:01:33.752Z,15.0
2022-09-09T04:02:34.348Z,15.1
2022-09-09T04:03:34.923Z,15.1
2022-09-09T04:04:35.518Z,15.0
2022-09-09T04:05:36.114Z,15.1
2022-09-09T04:06:36.709Z,15.1
2022-09-09T04:07:37.303Z,15.0
2022-09-09T04:08:38.081Z,15.0
2022-09-09T04:09:38.692Z,15.0
2022-09-09T04:10:39.289Z,15.1
2022-09-09T04:11:39.901Z,15.0
2022-09-09T04:12:40.517Z,15.0
2022-09-09T04:13:41.111Z,15.1
2022-09-09T04:14:41.725Z,15.0
2022-09-09T04:15:42.318Z,15.1
2022-09-09T04:16:42.965Z,14.9
2022-09-09T04:17:43.546Z,15.1
2022-09-09T04:18:44.139Z,15.0
2022-09-09T04:19:44.735Z,15.0
2022-09-09T04:20:45.330Z,15.0
2022-09-09T04:21:45.921Z,14.9
2022-09-09T04:22:46.518Z,15.0
2022-09-09T04:23:47.113Z,15.0
2022-09-09T04:24:48.885Z,14.9
2022-09-09T04:25:49.298Z,14.9
2022-09-09T04:26:49.895Z,15.0
2022-09-09T04:27:50.492Z,15.0
2022-09-09T04:28:51.094Z,15.0
2022-09-09T04:29:51.682Z,14.9
2022-09-09T04:30:52.279Z,15.0
2022-09-09T04:31:52.947Z,15.0
2022-09-09T04:32:53.485Z,14.9
2022-09-09T04:33:54.082Z,15.0
2022-09-09T04:34:54.677Z,15.0
2022-09-09T04:35:55.273Z,15.0
2022-09-09T04:36:55.871Z,15.0
2022-09-09T04:37:56.471Z,15.0
2022-09-09T04:38:57.070Z,15.1
2022-09-09T04:39:57.700Z,15.1
2022-09-09T04:40:58.263Z,15.0
2022-09-09T04:41:58.878Z,15.1
2022-09-09T04:42:59.474Z,15.1
2022-09-09T04:44:00.072Z,15.1
2022-09-09T04:45:00.670Z,15.2
2022-09-09T04:46:01.374Z,15.2
2022-09-09T04:47:01.978Z,15.1
2022-09-09T04:48:02.574Z,15.1
2022-09-09T04:49:03.171Z,15.1
2022-09-09T04:50:03.767Z,15.1
2022-09-09T04:51:04.365Z,15.1
2022-09-09T04:52:04.962Z,15.1
2022-09-09T04:53:05.583Z,15.1
2022-09-09T04:54:06.176Z,15.2
2022-09-09T04:55:06.777Z,15.1
2022-09-09T04:56:07.373Z,15.2
2022-09-09T04:57:07.970Z,15.2
2022-09-09T04:58:08.566Z,15.2
2022-09-09T04:59:09.163Z,15.1
2022-09-09T05:00:09.763Z,15.0
2022-09-09T05:01:10.396Z,15.2
2022-09-09T05:02:11.053Z,15.0
2022-09-09T05:03:11.601Z,15.0
2022-09-09T05:04:12.199Z,15.0
2022-09-09T05:05:12.832Z,15.0
2022-09-09T05:06:13.416Z,14.9
2022-09-09T05:07:14.018Z,15.0
2022-09-09T05:08:14.618Z,15.0
2022-09-09T05:09:15.217Z,15.0
2022-09-09T05:10:15.844Z,15.0
2022-09-09T05:11:16.417Z,15.0
2022-09-09T05:12:17.017Z,15.0
2022-09-09T05:13:17.615Z,15.0
2022-09-09T05:14:18.213Z,14.9
2022-09-09T05:15:18.813Z,15.0
2022-09-09T05:16:19.491Z,15.0
2022-09-09T05:17:20.072Z,15.0
2022-09-09T05:18:20.665Z,15.1
2022-09-09T05:19:21.285Z,15.1
2022-09-09T05:20:21.884Z,15.3
2022-09-09T05:21:22.504Z,15.3
2022-09-09T05:22:23.081Z,15.3
2022-09-09T05:23:23.682Z,15.3
2022-09-09T05:24:24.299Z,15.3
2022-09-09T05:25:24.899Z,15.3
2022-09-09T05:26:25.497Z,15.3
2022-09-09T05:27:26.099Z,15.3
2022-09-09T05:28:26.697Z,15.3
2022-09-09T05:29:27.298Z,15.2
2022-09-09T05:30:27.898Z,15.3
2022-09-09T05:31:28.528Z,15.1
2022-09-09T05:32:29.100Z,15.3
2022-09-09T05:33:29.701Z,15.1
2022-09-09T05:34:30.300Z,15.2
2022-09-09T05:35:30.904Z,15.2
2022-09-09T05:36:31.501Z,15.2
2022-09-09T05:37:32.101Z,15.0
2022-09-09T05:38:32.700Z,15.2
2022-09-09T05:39:33.345Z,15.1
2022-09-09T05:40:33.905Z,15.0
2022-09-09T05:41:34.509Z,15.0
2022-09-09T05:42:35.109Z,15.0
2022-09-09T05:43:35.710Z,14.9
2022-09-09T05:44:36.309Z,15.0
2022-09-09T05:45:36.909Z,14.9
2022-09-09T05:46:37.565Z,14.9
2022-09-09T05:47:38.105Z,14.9
2022-09-09T05:48:38.726Z,15.0
2022-09-09T05:49:39.331Z,14.9
2022-09-09T05:50:39.947Z,15.0
2022-09-09T05:51:40.551Z,15.0
2022-09-09T05:52:41.174Z,15.0
2022-09-09T05:53:41.775Z,15.0
2022-09-09T05:54:42.376Z,15.0
2022-09-09T05:55:42.995Z,15.0
2022-09-09T05:56:43.597Z,15.0
2022-09-09T05:57:44.197Z,15.0
2022-09-09T05:58:44.817Z,14.9
2022-09-09T05:59:45.418Z,15.0
2022-09-09T06:00:46.018Z,15.0
2022-09-09T06:01:46.732Z,15.0
2022-09-09T06:02:47.386Z,15.0
2022-09-09T06:03:47.963Z,14.9
2022-09-09T06:04:48.572Z,15.0
2022-09-09T06:05:49.185Z,14.9
2022-09-09T06:06:49.783Z,14.9
2022-09-09T06:07:50.405Z,15.1
2022-09-09T06:08:51.025Z,15.1
2022-09-09T06:09:51.626Z,15.2
2022-09-09T06:10:52.225Z,15.3
2022-09-09T06:11:52.826Z,15.3
2022-09-09T06:12:53.425Z,15.4
2022-09-09T06:13:54.026Z,15.5
2022-09-09T06:14:54.628Z,15.8
2022-09-09T06:15:55.270Z,16.6
2022-09-09T06:16:55.828Z,16.6
2022-09-09T06:17:56.429Z,16.7
2022-09-09T06:18:57.030Z,16.7
2022-09-09T06:19:57.633Z,16.6
2022-09-09T06:20:58.233Z,16.5
2022-09-09T06:21:58.835Z,16.7
2022-09-09T06:22:59.436Z,16.8
2022-09-09T06:24:01.296Z,16.9
2022-09-09T06:25:01.631Z,17.1
2022-09-09T06:26:02.234Z,16.9
2022-09-09T06:27:02.835Z,17.1
2022-09-09T06:28:03.456Z,17.7
2022-09-09T06:29:04.057Z,19.4
2022-09-09T06:30:04.661Z,19.8
2022-09-09T06:31:05.354Z,19.8
2022-09-09T06:32:05.932Z,21.0
2022-09-09T06:33:06.525Z,22.6
2022-09-09T06:34:07.128Z,23.3
2022-09-09T06:35:07.728Z,24.4
2022-09-09T06:36:08.328Z,25.1
2022-09-09T06:37:08.929Z,25.1
2022-09-09T06:38:09.530Z,24.8
2022-09-09T06:39:14.494Z,24.9
2022-09-09T06:40:11.768Z,25.5
2022-09-09T06:41:12.325Z,26.2
2022-09-09T06:42:12.924Z,25.8
2022-09-09T06:43:13.526Z,24.4
2022-09-09T06:44:14.129Z,23.3
2022-09-09T06:45:14.728Z,21.9
2022-09-09T06:46:15.355Z,21.0
2022-09-09T06:47:15.925Z,20.5
2022-09-09T06:48:16.528Z,19.9
2022-09-09T06:49:17.151Z,19.2
2022-09-09T06:50:17.752Z,18.7
2022-09-09T06:51:18.370Z,18.5
2022-09-09T06:52:18.975Z,18.4
2022-09-09T06:53:19.595Z,18.6
2022-09-09T06:54:20.195Z,19.6
2022-09-09T06:55:20.796Z,19.6
2022-09-09T06:56:21.395Z,19.7
2022-09-09T06:57:36.535Z,19.9
2022-09-09T06:58:23.591Z,20.2
2022-09-09T06:59:24.192Z,20.1
2022-09-09T07:00:24.793Z,19.7
2022-09-09T07:01:25.394Z,19.2
2022-09-09T07:02:26.026Z,19.1
2022-09-09T07:03:26.640Z,19.1
2022-09-09T07:04:27.239Z,19.1
2022-09-09T07:05:27.843Z,18.8
2022-09-09T07:06:28.442Z,18.6
2022-09-09T07:07:29.048Z,18.4
2022-09-09T07:08:29.753Z,18.2
2022-09-09T07:09:30.296Z,18.1
2022-09-09T07:10:30.917Z,18.1
2022-09-09T07:11:31.542Z,18.1
2022-09-09T07:12:32.141Z,18.2
2022-09-09T07:13:32.761Z,18.0
2022-09-09T07:14:33.361Z,17.9
2022-09-09T07:15:33.964Z,18.0
2022-09-09T07:16:34.759Z,17.8
2022-09-09T07:17:35.322Z,17.8
2022-09-09T07:18:36.055Z,17.7
2022-09-09T07:19:36.675Z,17.6
2022-09-09T07:20:37.278Z,17.7
2022-09-09T07:21:37.900Z,17.8
2022-09-09T07:22:38.524Z,17.6
2022-09-09T07:23:39.127Z,17.6
2022-09-09T07:24:39.731Z,17.8
2022-09-09T07:25:40.333Z,18.0
2022-09-09T07:26:40.932Z,17.9
2022-09-09T07:27:41.538Z,18.0
2022-09-09T07:28:42.139Z,18.0
2022-09-09T07:29:42.742Z,18.1
2022-09-09T07:30:43.346Z,18.2
2022-09-09T07:31:44.034Z,18.1
2022-09-09T07:32:44.600Z,18.2
2022-09-09T07:33:45.207Z,18.2
2022-09-09T07:34:45.809Z,18.2
2022-09-09T07:35:46.411Z,18.3
2022-09-09T07:36:47.012Z,18.3
2022-09-09T07:37:50.891Z,18.5
2022-09-09T07:38:49.210Z,18.6
2022-09-09T07:39:49.849Z,18.5
2022-09-09T07:40:50.427Z,18.6
2022-09-09T07:41:51.032Z,18.6
2022-09-09T07:42:51.633Z,18.6
2022-09-09T07:43:52.237Z,18.7
2022-09-09T07:44:52.838Z,18.7
2022-09-09T07:45:53.462Z,18.8
2022-09-09T07:46:54.147Z,18.8
2022-09-09T07:47:54.709Z,18.5
2022-09-09T07:48:55.310Z,18.6
2022-09-09T07:49:55.913Z,18.7
2022-09-09T07:50:56.514Z,18.8
2022-09-09T07:51:57.201Z,18.9
2022-09-09T07:52:57.842Z,18.9
2022-09-09T07:53:58.416Z,18.8
2022-09-09T07:55:01.336Z,19.0
2022-09-09T07:55:59.640Z,19.0
2022-09-09T07:57:00.454Z,19.1
2022-09-09T07:58:01.005Z,19.2
2022-09-09T07:59:01.607Z,19.2
2022-09-09T08:00:02.213Z,19.1
2022-09-09T08:01:02.834Z,18.9
2022-09-09T08:02:03.500Z,18.8
2022-09-09T08:03:04.145Z,18.9
2022-09-09T08:04:04.704Z,18.8
2022-09-09T08:05:05.302Z,18.8
2022-09-09T08:06:05.901Z,18.7
2022-09-09T08:07:06.501Z,18.8
2022-09-09T08:08:07.102Z,18.8
2022-09-09T08:09:07.700Z,18.9
2022-09-09T08:10:08.302Z,18.7
2022-09-09T08:11:08.903Z,18.4
2022-09-09T08:12:09.504Z,18.6
2022-09-09T08:13:17.777Z,18.7
2022-09-09T08:14:11.704Z,18.8
2022-09-09T08:15:12.301Z,18.8
2022-09-09T08:16:12.956Z,18.8
2022-09-09T08:17:13.516Z,18.8
2022-09-09T08:18:14.121Z,18.8
2022-09-09T08:19:14.740Z,18.8
2022-09-09T08:20:15.362Z,18.9
2022-09-09T08:21:15.962Z,18.8
2022-09-09T08:22:16.565Z,18.7
2022-09-09T08:23:17.169Z,18.8
2022-09-09T08:24:17.768Z,18.8
2022-09-09T08:25:18.368Z,19.0
2022-09-09T08:26:18.970Z,19.1
2022-09-09T08:27:19.573Z,19.1
2022-09-09T08:28:20.174Z,19.1
2022-09-09T08:29:20.780Z,19.2
2022-09-09T08:30:21.378Z,19.3
2022-09-09T08:31:22.004Z,19.3
2022-09-09T08:32:22.586Z,19.3
2022-09-09T08:33:23.183Z,19.3
2022-09-09T08:34:23.784Z,19.3
2022-09-09T08:35:24.384Z,19.1
2022-09-09T08:36:24.987Z,19.2
2022-09-09T08:37:25.587Z,19.0
2022-09-09T08:38:26.190Z,18.9
2022-09-09T08:39:26.792Z,18.8
2022-09-09T08:40:27.398Z,18.9
2022-09-09T08:41:28.019Z,19.1
2022-09-09T08:42:28.622Z,19.1
2022-09-09T08:43:29.299Z,19.1
2022-09-09T08:44:29.877Z,19.2
2022-09-09T08:45:30.480Z,19.2
2022-09-09T08:46:31.120Z,19.3
2022-09-09T08:47:33.872Z,19.4
2022-09-09T08:48:32.362Z,19.7
2022-09-09T08:49:32.927Z,19.7
2022-09-09T08:50:33.552Z,19.8
2022-09-09T08:51:34.153Z,19.8
2022-09-09T08:52:34.756Z,19.7
2022-09-09T08:53:35.377Z,19.8
2022-09-09T08:54:51.527Z,19.8
2022-09-09T08:55:37.580Z,19.8
2022-09-09T08:56:38.180Z,19.9
2022-09-09T08:57:38.782Z,20.0
2022-09-09T08:58:39.384Z,20.2
2022-09-09T08:59:39.988Z,20.3
2022-09-09T09:00:40.592Z,20.7
2022-09-09T09:01:41.224Z,20.8
2022-09-09T09:02:41.810Z,21.0
2022-09-09T09:03:42.413Z,21.0
2022-09-09T09:04:43.062Z,21.0
2022-09-09T09:05:43.634Z,20.9
2022-09-09T09:06:44.240Z,20.5
2022-09-09T09:07:44.841Z,20.3
2022-09-09T09:08:45.442Z,20.2
2022-09-09T09:09:46.043Z,20.5
2022-09-09T09:10:46.645Z,20.7
2022-09-09T09:11:47.248Z,21.0
2022-09-09T09:12:47.858Z,21.1
2022-09-09T09:13:48.474Z,21.1
2022-09-09T09:14:49.099Z,21.0
2022-09-09T09:15:49.767Z,21.1
2022-09-09T09:16:50.310Z,21.0
2022-09-09T09:17:50.912Z,20.8
2022-09-09T09:18:51.514Z,20.6
2022-09-09T09:19:52.115Z,20.5
2022-09-09T09:20:52.719Z,20.5
2022-09-09T09:21:53.319Z,20.6
2022-09-09T09:22:53.922Z,20.6
2022-09-09T09:23:54.522Z,20.4
2022-09-09T09:24:55.124Z,20.2
2022-09-09T09:25:55.722Z,20.0
2022-09-09T09:26:56.364Z,19.9
2022-09-09T09:27:56.943Z,20.1
2022-09-09T09:28:57.550Z,20.1
2022-09-09T09:30:21.590Z,20.3
2022-09-09T09:30:59.837Z,20.5
2022-09-09T09:32:00.389Z,20.9
2022-09-09T09:33:00.994Z,21.2
2022-09-09T09:34:01.594Z,21.3
2022-09-09T09:35:02.197Z,21.5
2022-09-09T09:36:02.800Z,21.5
2022-09-09T09:37:03.405Z,21.6
2022-09-09T09:40:07.198Z,21.3
2022-09-09T09:41:07.800Z,21.4
2022-09-09T09:42:08.403Z,21.5
2022-09-09T09:43:09.007Z,21.7
2022-09-09T09:44:09.610Z,21.9
2022-09-09T09:45:10.214Z,21.9
2022-09-09T09:46:18.405Z,22.1
2022-09-09T09:47:12.431Z,22.2
2022-09-09T09:48:13.902Z,22.3
2022-09-09T09:49:14.632Z,22.5
2022-09-09T09:50:15.255Z,22.6
2022-09-09T09:51:15.859Z,22.6
2022-09-09T09:52:16.460Z,22.5
2022-09-09T09:53:17.063Z,22.5
2022-09-09T09:54:17.663Z,22.7
2022-09-09T09:55:18.266Z,22.9
2022-09-09T09:56:18.865Z,23.1
2022-09-09T09:57:19.483Z,22.7
2022-09-09T09:58:20.085Z,22.4
2022-09-09T09:59:23.791Z,22.5
2022-09-09T10:00:22.282Z,22.6
2022-09-09T10:01:22.936Z,22.3
2022-09-09T10:02:23.507Z,22.1
2022-09-09T10:03:24.109Z,22.1
2022-09-09T10:04:24.793Z,22.3
2022-09-09T10:05:27.185Z,22.5
2022-09-09T10:06:26.928Z,22.1
2022-09-09T10:07:27.532Z,22.1
2022-09-09T10:08:28.132Z,22.1
2022-09-09T10:09:28.736Z,22.3
2022-09-09T10:10:29.338Z,22.4
2022-09-09T10:11:29.941Z,22.4
2022-09-09T10:12:30.566Z,22.3
2022-09-09T10:13:31.148Z,22.3
2022-09-09T10:14:31.750Z,22.3
2022-09-09T10:15:32.397Z,22.2
2022-09-09T10:16:32.993Z,22.3
2022-09-09T10:17:33.597Z,22.1
2022-09-09T10:18:34.250Z,21.9
2022-09-09T10:19:34.840Z,21.9
2022-09-09T10:20:35.435Z,21.8
2022-09-09T10:21:36.035Z,21.5
2022-09-09T10:22:36.638Z,21.5
2022-09-09T10:23:37.283Z,21.4
2022-09-09T10:24:37.842Z,21.3
2022-09-09T10:25:38.462Z,21.2
2022-09-09T10:26:39.064Z,21.3
2022-09-09T10:27:39.667Z,21.3
2022-09-09T10:28:40.276Z,21.2
2022-09-09T10:29:40.922Z,21.0
2022-09-09T10:30:41.539Z,20.7
2022-09-09T10:31:42.100Z,20.5
2022-09-09T10:32:42.701Z,20.2
2022-09-09T10:33:43.303Z,20.2
2022-09-09T10:34:43.919Z,20.2
2022-09-09T10:35:44.505Z,20.1
2022-09-09T10:36:45.106Z,19.9
2022-09-09T10:37:45.708Z,19.8
2022-09-09T10:38:46.309Z,19.9
2022-09-09T10:39:46.935Z,19.7
2022-09-09T10:40:47.509Z,19.6
2022-09-09T10:41:48.113Z,19.6
2022-09-09T10:42:48.713Z,19.6
2022-09-09T10:43:49.316Z,19.6
2022-09-09T10:44:49.920Z,19.6
2022-09-09T10:45:50.540Z,19.6
2022-09-09T10:46:51.126Z,19.7
2022-09-09T10:47:51.726Z,19.6
2022-09-09T10:48:52.326Z,19.6
2022-09-09T10:49:52.927Z,19.7
2022-09-09T10:51:03.843Z,19.8
2022-09-09T10:51:55.124Z,19.7
2022-09-09T10:52:55.726Z,19.7
2022-09-09T10:53:56.348Z,19.8
2022-09-09T10:54:56.949Z,19.9
2022-09-09T10:55:57.553Z,19.8
2022-09-09T10:56:58.174Z,19.8
2022-09-09T10:57:58.777Z,19.8
2022-09-09T10:58:59.379Z,20.0
2022-09-09T11:00:00.004Z,20.2
2022-09-09T11:01:00.647Z,20.4
2022-09-09T11:02:01.211Z,20.7
2022-09-09T11:03:01.815Z,20.9
2022-09-09T11:04:02.418Z,21.1
2022-09-09T11:05:03.022Z,21.2
2022-09-09T11:06:03.668Z,21.3
2022-09-09T11:07:07.428Z,21.7
2022-09-09T11:08:05.853Z,21.8
2022-09-09T11:09:06.458Z,22.1
2022-09-09T11:10:07.062Z,22.4
2022-09-09T11:11:07.664Z,22.8
2022-09-09T11:12:08.267Z,23.2
2022-09-09T11:13:08.870Z,23.4
2022-09-09T11:14:09.474Z,23.7
2022-09-09T11:15:10.078Z,24.0
2022-09-09T11:16:10.683Z,24.3
2022-09-09T11:17:11.288Z,24.4
2022-09-09T11:18:11.886Z,24.3
2022-09-09T11:19:12.489Z,24.1
2022-09-09T11:20:13.091Z,24.1
2022-09-09T11:21:13.713Z,24.2
2022-09-09T11:22:14.317Z,24.0
2022-09-09T11:23:14.921Z,23.9
2022-09-09T11:24:15.525Z,24.0
2022-09-09T11:25:16.127Z,24.1
2022-09-09T11:26:16.729Z,23.9
2022-09-09T11:27:17.333Z,23.9
2022-09-09T11:28:18.003Z,23.7
2022-09-09T11:29:18.848Z,23.6
2022-09-09T11:30:37.783Z,23.7
2022-09-09T11:31:20.786Z,23.8
2022-09-09T11:32:21.355Z,23.8
2022-09-09T11:33:21.961Z,23.8
2022-09-09T11:34:22.583Z,23.9
2022-09-09T11:35:23.191Z,23.9
2022-09-09T11:36:23.793Z,23.9
2022-09-09T11:37:24.397Z,23.7
2022-09-09T11:38:24.999Z,23.6
2022-09-09T11:39:25.602Z,23.5
2022-09-09T11:40:26.204Z,23.6
2022-09-09T11:41:26.807Z,23.4
2022-09-09T11:42:27.409Z,23.0
2022-09-09T11:43:28.015Z,22.6
2022-09-09T11:44:28.690Z,22.4
2022-09-09T11:45:29.253Z,22.4
2022-09-09T11:46:29.908Z,22.6
2022-09-09T11:47:30.679Z,22.8
2022-09-09T11:48:31.244Z,22.8
2022-09-09T11:49:31.847Z,22.9
2022-09-09T11:50:32.471Z,22.9
2022-09-09T11:51:33.077Z,22.9
2022-09-09T11:52:33.681Z,23.2
2022-09-09T11:53:34.289Z,23.3
2022-09-09T11:54:34.889Z,23.1
2022-09-09T11:55:35.493Z,22.9
2022-09-09T11:56:36.098Z,23.0
2022-09-09T11:57:36.702Z,22.8
2022-09-09T11:58:37.304Z,22.9
2022-09-09T11:59:37.910Z,23.0
2022-09-09T12:00:38.516Z,23.1
2022-09-09T12:01:39.117Z,22.9
2022-09-09T12:02:40.194Z,22.7
2022-09-09T12:03:40.999Z,22.7
2022-09-09T12:04:41.650Z,22.7
2022-09-09T12:05:42.203Z,23.0
2022-09-09T12:06:42.809Z,23.1
2022-09-09T12:07:43.414Z,23.1
2022-09-09T12:08:44.018Z,23.2
2022-09-09T12:09:44.622Z,23.0
2022-09-09T12:10:45.244Z,22.9
2022-09-09T12:11:45.850Z,23.0
2022-09-09T12:12:46.451Z,23.0
2022-09-09T12:13:47.079Z,22.9
2022-09-09T12:14:47.681Z,23.0
2022-09-09T12:15:48.288Z,23.0
2022-09-09T12:16:48.960Z,22.9
2022-09-09T12:17:49.535Z,23.0
2022-09-09T12:18:50.187Z,23.0
2022-09-09T12:19:50.755Z,23.1
2022-09-09T12:20:51.362Z,23.4
2022-09-09T12:21:51.964Z,23.4
2022-09-09T12:22:52.568Z,23.1
2022-09-09T12:23:53.170Z,22.8
2022-09-09T12:24:53.770Z,22.8
2022-09-09T12:25:54.372Z,22.8
2022-09-09T12:26:54.974Z,22.6
2022-09-09T12:27:55.596Z,22.3
2022-09-09T12:28:56.195Z,22.0
2022-09-09T12:29:56.818Z,21.9
2022-09-09T12:30:57.466Z,21.8
2022-09-09T12:31:58.048Z,21.9
2022-09-09T12:32:58.666Z,22.0
2022-09-09T12:33:59.268Z,22.1
2022-09-09T12:34:59.867Z,22.1
2022-09-09T12:36:00.471Z,21.9
2022-09-09T12:37:01.090Z,21.8
2022-09-09T12:38:01.692Z,21.8
2022-09-09T12:39:02.291Z,21.7
2022-09-09T12:40:02.923Z,21.6
2022-09-09T12:41:03.497Z,21.5
2022-09-09T12:42:04.100Z,21.5
2022-09-09T12:43:04.706Z,21.5
2022-09-09T12:44:05.306Z,21.3
2022-09-09T12:45:05.908Z,21.2
2022-09-09T12:46:06.535Z,21.3
2022-09-09T12:47:07.111Z,21.1
2022-09-09T12:48:07.735Z,21.0
2022-09-09T12:49:08.334Z,21.1
2022-09-09T12:50:08.938Z,21.2
2022-09-09T12:51:09.538Z,21.2
2022-09-09T12:52:10.143Z,21.4
2022-09-09T12:53:10.743Z,21.5
2022-09-09T12:54:11.348Z,21.8
2022-09-09T12:55:11.956Z,21.9
2022-09-09T12:56:12.555Z,21.9
2022-09-09T12:57:13.158Z,21.8
2022-09-09T12:58:13.763Z,21.8
2022-09-09T12:59:14.363Z,21.8
2022-09-09T13:00:14.967Z,22.0
2022-09-09T13:01:15.600Z,22.2
2022-09-09T13:02:16.225Z,22.3
2022-09-09T13:03:16.819Z,22.6
2022-09-09T13:04:17.438Z,22.5
2022-09-09T13:05:18.041Z,22.6
2022-09-09T13:06:18.644Z,22.8
2022-09-09T13:07:19.247Z,22.8
2022-09-09T13:08:19.855Z,22.6
2022-09-09T13:09:20.455Z,22.6
2022-09-09T13:10:30.614Z,22.6
2022-09-09T13:11:22.671Z,22.8
2022-09-09T13:12:23.275Z,23.1
2022-09-09T13:13:23.883Z,23.3
2022-09-09T13:14:24.481Z,23.4
2022-09-09T13:15:25.083Z,23.2
2022-09-09T13:16:25.733Z,23.2
2022-09-09T13:17:26.317Z,23.0
2022-09-09T13:18:26.920Z,22.9
2022-09-09T13:19:27.524Z,23.0
2022-09-09T13:20:28.147Z,22.9
2022-09-09T13:21:28.749Z,22.9
2022-09-09T13:22:29.351Z,22.8
2022-09-09T13:23:30.033Z,23.0
2022-09-09T13:24:30.713Z,23.0
2022-09-09T13:25:31.300Z,23.1
2022-09-09T13:26:31.964Z,23.0
2022-09-09T13:27:32.536Z,22.8
2022-09-09T13:28:33.800Z,22.8